<?xml version="1.0" encoding="UTF-8" standalone="no" ?>
<gpx xmlns="http://www.topografix.com/GPX/1/1" xmlns:xsi="http://www.w3.org/2001/XMLSchema-instance" xsi:schemaLocation="http://www.topografix.com/GPX/1/1 http://www.topografix.com/GPX/1/1/gpx.xsd" version="1.1" creator="VisuGPX - https://www.visugpx.com">
  <metadata>
    <name>abbaretz_5Tresors_TourArche_22km</name>
    <desc><![CDATA[gnerando idor: 7059957_7059979_7060017_9914522]]></desc>
  </metadata>
  <trk>
    <name><![CDATA[Abbaretz_5TresorsArcheVioreau_24km-9937353]]></name>
    <extensions>
      <line xmlns="http://www.topografix.com/GPX/gpx_style/0/2">
        <color>400000</color>
        <width>4</width>
      </line>
    </extensions>
    <trkseg>
      <trkpt lat="47.56587" lon="-1.4644">
        <ele>46</ele>
        <time>2023-11-04T12:04:09Z</time>
      </trkpt>
      <trkpt lat="47.56717" lon="-1.46418">
        <ele>45</ele>
        <time>2023-11-04T12:07:04Z</time>
      </trkpt>
      <trkpt lat="47.5674" lon="-1.4641">
        <ele>45</ele>
        <time>2023-11-04T12:07:35Z</time>
      </trkpt>
      <trkpt lat="47.56756" lon="-1.46397">
        <ele>46</ele>
        <time>2023-11-04T12:07:59Z</time>
      </trkpt>
      <trkpt lat="47.56776" lon="-1.46404">
        <ele>46</ele>
        <time>2023-11-04T12:08:27Z</time>
      </trkpt>
      <trkpt lat="47.56791" lon="-1.46402">
        <ele>46</ele>
        <time>2023-11-04T12:08:47Z</time>
      </trkpt>
      <trkpt lat="47.56805" lon="-1.46395">
        <ele>46</ele>
        <time>2023-11-04T12:09:07Z</time>
      </trkpt>
      <trkpt lat="47.56843" lon="-1.46403">
        <ele>46</ele>
        <time>2023-11-04T12:09:58Z</time>
      </trkpt>
      <trkpt lat="47.56924" lon="-1.46378">
        <ele>42</ele>
        <time>2023-11-04T12:11:48Z</time>
      </trkpt>
      <trkpt lat="47.56954" lon="-1.46351">
        <ele>42</ele>
        <time>2023-11-04T12:12:35Z</time>
      </trkpt>
      <trkpt lat="47.56959" lon="-1.46379">
        <ele>41</ele>
        <time>2023-11-04T12:13:01Z</time>
      </trkpt>
      <trkpt lat="47.57014" lon="-1.46359">
        <ele>41</ele>
        <time>2023-11-04T12:14:17Z</time>
      </trkpt>
      <trkpt lat="47.57032" lon="-1.46363">
        <ele>42</ele>
        <time>2023-11-04T12:14:41Z</time>
      </trkpt>
      <trkpt lat="47.57055" lon="-1.46363">
        <ele>42</ele>
        <time>2023-11-04T12:15:12Z</time>
      </trkpt>
      <trkpt lat="47.57119" lon="-1.46349">
        <ele>43</ele>
        <time>2023-11-04T12:16:38Z</time>
      </trkpt>
      <trkpt lat="47.57202" lon="-1.46336">
        <ele>44</ele>
        <time>2023-11-04T12:18:30Z</time>
      </trkpt>
      <trkpt lat="47.57238" lon="-1.46334">
        <ele>43</ele>
        <time>2023-11-04T12:19:18Z</time>
      </trkpt>
      <trkpt lat="47.57258" lon="-1.46327">
        <ele>43</ele>
        <time>2023-11-04T12:19:45Z</time>
      </trkpt>
      <trkpt lat="47.57318" lon="-1.46318">
        <ele>43</ele>
        <time>2023-11-04T12:21:06Z</time>
      </trkpt>
      <trkpt lat="47.57342" lon="-1.46302">
        <ele>43</ele>
        <time>2023-11-04T12:21:41Z</time>
      </trkpt>
      <trkpt lat="47.5736" lon="-1.46299">
        <ele>44</ele>
        <time>2023-11-04T12:22:05Z</time>
      </trkpt>
      <trkpt lat="47.57398" lon="-1.46271">
        <ele>47</ele>
        <time>2023-11-04T12:23:01Z</time>
      </trkpt>
      <trkpt lat="47.57413" lon="-1.46249">
        <ele>48</ele>
        <time>2023-11-04T12:23:30Z</time>
      </trkpt>
      <trkpt lat="47.57431" lon="-1.46229">
        <ele>48</ele>
        <time>2023-11-04T12:24:00Z</time>
      </trkpt>
      <trkpt lat="47.57442" lon="-1.46207">
        <ele>49</ele>
        <time>2023-11-04T12:24:24Z</time>
      </trkpt>
      <trkpt lat="47.5751" lon="-1.46093">
        <ele>50</ele>
        <time>2023-11-04T12:26:41Z</time>
      </trkpt>
      <trkpt lat="47.57531" lon="-1.46081">
        <ele>51</ele>
        <time>2023-11-04T12:27:11Z</time>
      </trkpt>
      <trkpt lat="47.57625" lon="-1.46138">
        <ele>56</ele>
        <time>2023-11-04T12:29:27Z</time>
      </trkpt>
      <trkpt lat="47.57685" lon="-1.46164">
        <ele>60</ele>
        <time>2023-11-04T12:30:50Z</time>
      </trkpt>
      <trkpt lat="47.57707" lon="-1.46169">
        <ele>62</ele>
        <time>2023-11-04T12:31:20Z</time>
      </trkpt>
      <trkpt lat="47.57729" lon="-1.46181">
        <ele>64</ele>
        <time>2023-11-04T12:31:51Z</time>
      </trkpt>
      <trkpt lat="47.57783" lon="-1.4622">
        <ele>68</ele>
        <time>2023-11-04T12:33:11Z</time>
      </trkpt>
      <trkpt lat="47.57837" lon="-1.46263">
        <ele>71</ele>
        <time>2023-11-04T12:34:33Z</time>
      </trkpt>
      <trkpt lat="47.57834" lon="-1.4629">
        <ele>70</ele>
        <time>2023-11-04T12:34:58Z</time>
      </trkpt>
      <trkpt lat="47.57812" lon="-1.46339">
        <ele>68</ele>
        <time>2023-11-04T12:35:51Z</time>
      </trkpt>
      <trkpt lat="47.57798" lon="-1.46363">
        <ele>68</ele>
        <time>2023-11-04T12:36:19Z</time>
      </trkpt>
      <trkpt lat="47.57758" lon="-1.46473">
        <ele>67</ele>
        <time>2023-11-04T12:38:12Z</time>
      </trkpt>
      <trkpt lat="47.57746" lon="-1.465">
        <ele>67</ele>
        <time>2023-11-04T12:38:41Z</time>
      </trkpt>
      <trkpt lat="47.57724" lon="-1.46584">
        <ele>65</ele>
        <time>2023-11-04T12:40:02Z</time>
      </trkpt>
      <trkpt lat="47.57691" lon="-1.46731">
        <ele>64</ele>
        <time>2023-11-04T12:42:22Z</time>
      </trkpt>
      <trkpt lat="47.57644" lon="-1.46947">
        <ele>64</ele>
        <time>2023-11-04T12:45:46Z</time>
      </trkpt>
      <trkpt lat="47.5764" lon="-1.46974">
        <ele>65</ele>
        <time>2023-11-04T12:46:11Z</time>
      </trkpt>
      <trkpt lat="47.57641" lon="-1.47065">
        <ele>69</ele>
        <time>2023-11-04T12:47:33Z</time>
      </trkpt>
      <trkpt lat="47.57653" lon="-1.47155">
        <ele>67</ele>
        <time>2023-11-04T12:48:55Z</time>
      </trkpt>
      <trkpt lat="47.5764" lon="-1.4733">
        <ele>66</ele>
        <time>2023-11-04T12:51:34Z</time>
      </trkpt>
      <trkpt lat="47.57628" lon="-1.47386">
        <ele>67</ele>
        <time>2023-11-04T12:52:27Z</time>
      </trkpt>
      <trkpt lat="47.5763" lon="-1.47418">
        <ele>67</ele>
        <time>2023-11-04T12:52:56Z</time>
      </trkpt>
      <trkpt lat="47.57627" lon="-1.47449">
        <ele>69</ele>
        <time>2023-11-04T12:53:24Z</time>
      </trkpt>
      <trkpt lat="47.57635" lon="-1.47518">
        <ele>70</ele>
        <time>2023-11-04T12:54:27Z</time>
      </trkpt>
      <trkpt lat="47.57634" lon="-1.47546">
        <ele>69</ele>
        <time>2023-11-04T12:54:52Z</time>
      </trkpt>
      <trkpt lat="47.57643" lon="-1.47607">
        <ele>67</ele>
        <time>2023-11-04T12:55:48Z</time>
      </trkpt>
      <trkpt lat="47.57644" lon="-1.4764">
        <ele>66</ele>
        <time>2023-11-04T12:56:18Z</time>
      </trkpt>
      <trkpt lat="47.57641" lon="-1.47667">
        <ele>65</ele>
        <time>2023-11-04T12:56:43Z</time>
      </trkpt>
      <trkpt lat="47.57644" lon="-1.47696">
        <ele>66</ele>
        <time>2023-11-04T12:57:09Z</time>
      </trkpt>
      <trkpt lat="47.57626" lon="-1.47823">
        <ele>64</ele>
        <time>2023-11-04T12:59:06Z</time>
      </trkpt>
      <trkpt lat="47.57603" lon="-1.47914">
        <ele>64</ele>
        <time>2023-11-04T13:00:33Z</time>
      </trkpt>
      <trkpt lat="47.57598" lon="-1.47942">
        <ele>65</ele>
        <time>2023-11-04T13:00:59Z</time>
      </trkpt>
      <trkpt lat="47.57587" lon="-1.47965">
        <ele>66</ele>
        <time>2023-11-04T13:01:25Z</time>
      </trkpt>
      <trkpt lat="47.57554" lon="-1.47965">
        <ele>66</ele>
        <time>2023-11-04T13:02:09Z</time>
      </trkpt>
      <trkpt lat="47.57595" lon="-1.47962">
        <ele>66</ele>
        <time>2023-11-04T13:03:04Z</time>
      </trkpt>
      <trkpt lat="47.57548" lon="-1.47958">
        <ele>66</ele>
        <time>2023-11-04T13:04:06Z</time>
      </trkpt>
      <trkpt lat="47.57524" lon="-1.47952">
        <ele>65</ele>
        <time>2023-11-04T13:04:39Z</time>
      </trkpt>
      <trkpt lat="47.57476" lon="-1.47945">
        <ele>63</ele>
        <time>2023-11-04T13:05:43Z</time>
      </trkpt>
      <trkpt lat="47.57377" lon="-1.47916">
        <ele>58</ele>
        <time>2023-11-04T13:07:58Z</time>
      </trkpt>
      <trkpt lat="47.57353" lon="-1.47899">
        <ele>56</ele>
        <time>2023-11-04T13:08:33Z</time>
      </trkpt>
      <trkpt lat="47.5733" lon="-1.47898">
        <ele>55</ele>
        <time>2023-11-04T13:09:04Z</time>
      </trkpt>
      <trkpt lat="47.5731" lon="-1.479">
        <ele>53</ele>
        <time>2023-11-04T13:09:31Z</time>
      </trkpt>
      <trkpt lat="47.57332" lon="-1.47909">
        <ele>56</ele>
        <time>2023-11-04T13:10:01Z</time>
      </trkpt>
      <trkpt lat="47.57312" lon="-1.47891">
        <ele>53</ele>
        <time>2023-11-04T13:10:33Z</time>
      </trkpt>
      <trkpt lat="47.57293" lon="-1.47889">
        <ele>52</ele>
        <time>2023-11-04T13:10:58Z</time>
      </trkpt>
      <trkpt lat="47.57256" lon="-1.47878">
        <ele>49</ele>
        <time>2023-11-04T13:11:48Z</time>
      </trkpt>
      <trkpt lat="47.57213" lon="-1.4787">
        <ele>47</ele>
        <time>2023-11-04T13:12:46Z</time>
      </trkpt>
      <trkpt lat="47.57194" lon="-1.4786">
        <ele>46</ele>
        <time>2023-11-04T13:13:13Z</time>
      </trkpt>
      <trkpt lat="47.57071" lon="-1.47826">
        <ele>41</ele>
        <time>2023-11-04T13:16:00Z</time>
      </trkpt>
      <trkpt lat="47.57029" lon="-1.47811">
        <ele>41</ele>
        <time>2023-11-04T13:16:58Z</time>
      </trkpt>
      <trkpt lat="47.56992" lon="-1.47802">
        <ele>41</ele>
        <time>2023-11-04T13:17:48Z</time>
      </trkpt>
      <trkpt lat="47.56943" lon="-1.47794">
        <ele>41</ele>
        <time>2023-11-04T13:18:54Z</time>
      </trkpt>
      <trkpt lat="47.56882" lon="-1.47771">
        <ele>41</ele>
        <time>2023-11-04T13:20:18Z</time>
      </trkpt>
      <trkpt lat="47.5684" lon="-1.4776">
        <ele>39</ele>
        <time>2023-11-04T13:21:14Z</time>
      </trkpt>
      <trkpt lat="47.56804" lon="-1.47738">
        <ele>39</ele>
        <time>2023-11-04T13:22:06Z</time>
      </trkpt>
      <trkpt lat="47.56794" lon="-1.47704">
        <ele>40</ele>
        <time>2023-11-04T13:22:40Z</time>
      </trkpt>
      <trkpt lat="47.56769" lon="-1.4771">
        <ele>41</ele>
        <time>2023-11-04T13:23:14Z</time>
      </trkpt>
      <trkpt lat="47.56671" lon="-1.47642">
        <ele>43</ele>
        <time>2023-11-04T13:25:38Z</time>
      </trkpt>
      <trkpt lat="47.56655" lon="-1.47627">
        <ele>43</ele>
        <time>2023-11-04T13:26:03Z</time>
      </trkpt>
      <trkpt lat="47.566" lon="-1.47585">
        <ele>42</ele>
        <time>2023-11-04T13:27:26Z</time>
      </trkpt>
      <trkpt lat="47.56582" lon="-1.47568">
        <ele>42</ele>
        <time>2023-11-04T13:27:54Z</time>
      </trkpt>
      <trkpt lat="47.56562" lon="-1.47557">
        <ele>42</ele>
        <time>2023-11-04T13:28:23Z</time>
      </trkpt>
      <trkpt lat="47.56527" lon="-1.47528">
        <ele>41</ele>
        <time>2023-11-04T13:29:16Z</time>
      </trkpt>
      <trkpt lat="47.56508" lon="-1.47518">
        <ele>41</ele>
        <time>2023-11-04T13:29:43Z</time>
      </trkpt>
      <trkpt lat="47.56466" lon="-1.47487">
        <ele>42</ele>
        <time>2023-11-04T13:30:46Z</time>
      </trkpt>
      <trkpt lat="47.56393" lon="-1.47429">
        <ele>44</ele>
        <time>2023-11-04T13:32:36Z</time>
      </trkpt>
      <trkpt lat="47.56259" lon="-1.47328">
        <ele>46</ele>
        <time>2023-11-04T13:35:57Z</time>
      </trkpt>
      <trkpt lat="47.56217" lon="-1.47282">
        <ele>47</ele>
        <time>2023-11-04T13:37:07Z</time>
      </trkpt>
      <trkpt lat="47.56232" lon="-1.47299">
        <ele>47</ele>
        <time>2023-11-04T13:37:32Z</time>
      </trkpt>
      <trkpt lat="47.5621" lon="-1.47288">
        <ele>47</ele>
        <time>2023-11-04T13:38:03Z</time>
      </trkpt>
      <trkpt lat="47.56176" lon="-1.47263">
        <ele>48</ele>
        <time>2023-11-04T13:38:54Z</time>
      </trkpt>
      <trkpt lat="47.56129" lon="-1.4724">
        <ele>50</ele>
        <time>2023-11-04T13:40:00Z</time>
      </trkpt>
      <trkpt lat="47.56118" lon="-1.47219">
        <ele>50</ele>
        <time>2023-11-04T13:40:23Z</time>
      </trkpt>
      <trkpt lat="47.56084" lon="-1.47194">
        <ele>51</ele>
        <time>2023-11-04T13:41:14Z</time>
      </trkpt>
      <trkpt lat="47.56069" lon="-1.47179">
        <ele>52</ele>
        <time>2023-11-04T13:41:38Z</time>
      </trkpt>
      <trkpt lat="47.56053" lon="-1.47167">
        <ele>52</ele>
        <time>2023-11-04T13:42:02Z</time>
      </trkpt>
      <trkpt lat="47.5603" lon="-1.47159">
        <ele>52</ele>
        <time>2023-11-04T13:42:34Z</time>
      </trkpt>
      <trkpt lat="47.55995" lon="-1.47135">
        <ele>53</ele>
        <time>2023-11-04T13:43:25Z</time>
      </trkpt>
      <trkpt lat="47.55977" lon="-1.47118">
        <ele>53</ele>
        <time>2023-11-04T13:43:54Z</time>
      </trkpt>
      <trkpt lat="47.55956" lon="-1.47103">
        <ele>53</ele>
        <time>2023-11-04T13:44:25Z</time>
      </trkpt>
      <trkpt lat="47.55937" lon="-1.47085">
        <ele>54</ele>
        <time>2023-11-04T13:44:55Z</time>
      </trkpt>
      <trkpt lat="47.5588" lon="-1.47041">
        <ele>59</ele>
        <time>2023-11-04T13:46:21Z</time>
      </trkpt>
      <trkpt lat="47.55864" lon="-1.47026">
        <ele>62</ele>
        <time>2023-11-04T13:46:46Z</time>
      </trkpt>
      <trkpt lat="47.55846" lon="-1.47017">
        <ele>64</ele>
        <time>2023-11-04T13:47:11Z</time>
      </trkpt>
      <trkpt lat="47.55816" lon="-1.46986">
        <ele>68</ele>
        <time>2023-11-04T13:48:00Z</time>
      </trkpt>
      <trkpt lat="47.55799" lon="-1.46976">
        <ele>70</ele>
        <time>2023-11-04T13:48:24Z</time>
      </trkpt>
      <trkpt lat="47.55781" lon="-1.46973">
        <ele>71</ele>
        <time>2023-11-04T13:48:49Z</time>
      </trkpt>
      <trkpt lat="47.5574" lon="-1.46975">
        <ele>74</ele>
        <time>2023-11-04T13:49:43Z</time>
      </trkpt>
      <trkpt lat="47.55704" lon="-1.4696">
        <ele>75</ele>
        <time>2023-11-04T13:50:33Z</time>
      </trkpt>
      <trkpt lat="47.55684" lon="-1.46962">
        <ele>77</ele>
        <time>2023-11-04T13:51:00Z</time>
      </trkpt>
      <trkpt lat="47.55577" lon="-1.47023">
        <ele>82</ele>
        <time>2023-11-04T13:53:33Z</time>
      </trkpt>
      <trkpt lat="47.55559" lon="-1.47045">
        <ele>81</ele>
        <time>2023-11-04T13:54:04Z</time>
      </trkpt>
      <trkpt lat="47.55526" lon="-1.47077">
        <ele>79</ele>
        <time>2023-11-04T13:54:57Z</time>
      </trkpt>
      <trkpt lat="47.55491" lon="-1.47101">
        <ele>77</ele>
        <time>2023-11-04T13:55:48Z</time>
      </trkpt>
      <trkpt lat="47.55471" lon="-1.47101">
        <ele>75</ele>
        <time>2023-11-04T13:56:15Z</time>
      </trkpt>
      <trkpt lat="47.55411" lon="-1.47079">
        <ele>71</ele>
        <time>2023-11-04T13:57:37Z</time>
      </trkpt>
      <trkpt lat="47.55349" lon="-1.47063">
        <ele>69</ele>
        <time>2023-11-04T13:59:01Z</time>
      </trkpt>
      <trkpt lat="47.55327" lon="-1.47061">
        <ele>69</ele>
        <time>2023-11-04T13:59:31Z</time>
      </trkpt>
      <trkpt lat="47.55299" lon="-1.47066">
        <ele>68</ele>
        <time>2023-11-04T14:00:08Z</time>
      </trkpt>
      <trkpt lat="47.55281" lon="-1.47065">
        <ele>68</ele>
        <time>2023-11-04T14:00:33Z</time>
      </trkpt>
      <trkpt lat="47.55221" lon="-1.47084">
        <ele>65</ele>
        <time>2023-11-04T14:01:54Z</time>
      </trkpt>
      <trkpt lat="47.5514" lon="-1.47103">
        <ele>61</ele>
        <time>2023-11-04T14:03:44Z</time>
      </trkpt>
      <trkpt lat="47.55122" lon="-1.47103">
        <ele>60</ele>
        <time>2023-11-04T14:04:08Z</time>
      </trkpt>
      <trkpt lat="47.55081" lon="-1.47116">
        <ele>59</ele>
        <time>2023-11-04T14:05:04Z</time>
      </trkpt>
      <trkpt lat="47.5506" lon="-1.47113">
        <ele>59</ele>
        <time>2023-11-04T14:05:32Z</time>
      </trkpt>
      <trkpt lat="47.55027" lon="-1.47083">
        <ele>59</ele>
        <time>2023-11-04T14:06:24Z</time>
      </trkpt>
      <trkpt lat="47.54991" lon="-1.47055">
        <ele>59</ele>
        <time>2023-11-04T14:07:18Z</time>
      </trkpt>
      <trkpt lat="47.54952" lon="-1.47038">
        <ele>59</ele>
        <time>2023-11-04T14:08:12Z</time>
      </trkpt>
      <trkpt lat="47.54913" lon="-1.47012">
        <ele>60</ele>
        <time>2023-11-04T14:09:09Z</time>
      </trkpt>
      <trkpt lat="47.54896" lon="-1.46998">
        <ele>59</ele>
        <time>2023-11-04T14:09:35Z</time>
      </trkpt>
      <trkpt lat="47.54854" lon="-1.46974">
        <ele>57</ele>
        <time>2023-11-04T14:10:35Z</time>
      </trkpt>
      <trkpt lat="47.54795" lon="-1.46936">
        <ele>57</ele>
        <time>2023-11-04T14:12:01Z</time>
      </trkpt>
      <trkpt lat="47.54758" lon="-1.46907">
        <ele>56</ele>
        <time>2023-11-04T14:12:57Z</time>
      </trkpt>
      <trkpt lat="47.54738" lon="-1.46897">
        <ele>56</ele>
        <time>2023-11-04T14:13:25Z</time>
      </trkpt>
      <trkpt lat="47.54695" lon="-1.4687">
        <ele>55</ele>
        <time>2023-11-04T14:14:27Z</time>
      </trkpt>
      <trkpt lat="47.54619" lon="-1.46818">
        <ele>54</ele>
        <time>2023-11-04T14:16:19Z</time>
      </trkpt>
      <trkpt lat="47.54542" lon="-1.4677">
        <ele>52</ele>
        <time>2023-11-04T14:18:11Z</time>
      </trkpt>
      <trkpt lat="47.5452" lon="-1.46759">
        <ele>52</ele>
        <time>2023-11-04T14:18:42Z</time>
      </trkpt>
      <trkpt lat="47.54486" lon="-1.46731">
        <ele>51</ele>
        <time>2023-11-04T14:19:34Z</time>
      </trkpt>
      <trkpt lat="47.54468" lon="-1.46724">
        <ele>51</ele>
        <time>2023-11-04T14:19:58Z</time>
      </trkpt>
      <trkpt lat="47.54411" lon="-1.46683">
        <ele>50</ele>
        <time>2023-11-04T14:21:23Z</time>
      </trkpt>
      <trkpt lat="47.54277" lon="-1.466">
        <ele>49</ele>
        <time>2023-11-04T14:24:37Z</time>
      </trkpt>
      <trkpt lat="47.54183" lon="-1.46537">
        <ele>50</ele>
        <time>2023-11-04T14:26:54Z</time>
      </trkpt>
      <trkpt lat="47.5416" lon="-1.46527">
        <ele>51</ele>
        <time>2023-11-04T14:27:26Z</time>
      </trkpt>
      <trkpt lat="47.54143" lon="-1.46511">
        <ele>51</ele>
        <time>2023-11-04T14:27:53Z</time>
      </trkpt>
      <trkpt lat="47.54126" lon="-1.465">
        <ele>51</ele>
        <time>2023-11-04T14:28:18Z</time>
      </trkpt>
      <trkpt lat="47.54088" lon="-1.46486">
        <ele>52</ele>
        <time>2023-11-04T14:29:10Z</time>
      </trkpt>
      <trkpt lat="47.54066" lon="-1.46487">
        <ele>52</ele>
        <time>2023-11-04T14:29:40Z</time>
      </trkpt>
      <trkpt lat="47.54045" lon="-1.46484">
        <ele>52</ele>
        <time>2023-11-04T14:30:08Z</time>
      </trkpt>
      <trkpt lat="47.53982" lon="-1.46483">
        <ele>51</ele>
        <time>2023-11-04T14:31:32Z</time>
      </trkpt>
      <trkpt lat="47.5392" lon="-1.46475">
        <ele>50</ele>
        <time>2023-11-04T14:32:55Z</time>
      </trkpt>
      <trkpt lat="47.53799" lon="-1.46441">
        <ele>52</ele>
        <time>2023-11-04T14:35:39Z</time>
      </trkpt>
      <trkpt lat="47.53739" lon="-1.46409">
        <ele>53</ele>
        <time>2023-11-04T14:37:04Z</time>
      </trkpt>
      <trkpt lat="47.53722" lon="-1.46396">
        <ele>54</ele>
        <time>2023-11-04T14:37:30Z</time>
      </trkpt>
      <trkpt lat="47.53692" lon="-1.46356">
        <ele>55</ele>
        <time>2023-11-04T14:38:24Z</time>
      </trkpt>
      <trkpt lat="47.53624" lon="-1.4628">
        <ele>56</ele>
        <time>2023-11-04T14:40:17Z</time>
      </trkpt>
      <trkpt lat="47.53567" lon="-1.46238">
        <ele>57</ele>
        <time>2023-11-04T14:41:42Z</time>
      </trkpt>
      <trkpt lat="47.53516" lon="-1.46191">
        <ele>57</ele>
        <time>2023-11-04T14:43:03Z</time>
      </trkpt>
      <trkpt lat="47.535" lon="-1.46171">
        <ele>57</ele>
        <time>2023-11-04T14:43:31Z</time>
      </trkpt>
      <trkpt lat="47.53473" lon="-1.46121">
        <ele>57</ele>
        <time>2023-11-04T14:44:28Z</time>
      </trkpt>
      <trkpt lat="47.53453" lon="-1.46066">
        <ele>56</ele>
        <time>2023-11-04T14:45:24Z</time>
      </trkpt>
      <trkpt lat="47.53439" lon="-1.4604">
        <ele>55</ele>
        <time>2023-11-04T14:45:54Z</time>
      </trkpt>
      <trkpt lat="47.53407" lon="-1.45995">
        <ele>53</ele>
        <time>2023-11-04T14:46:53Z</time>
      </trkpt>
      <trkpt lat="47.53389" lon="-1.45975">
        <ele>52</ele>
        <time>2023-11-04T14:47:23Z</time>
      </trkpt>
      <trkpt lat="47.53369" lon="-1.45959">
        <ele>51</ele>
        <time>2023-11-04T14:47:54Z</time>
      </trkpt>
      <trkpt lat="47.53327" lon="-1.45937">
        <ele>49</ele>
        <time>2023-11-04T14:48:53Z</time>
      </trkpt>
      <trkpt lat="47.53309" lon="-1.4592">
        <ele>47</ele>
        <time>2023-11-04T14:49:22Z</time>
      </trkpt>
      <trkpt lat="47.5327" lon="-1.45893">
        <ele>44</ele>
        <time>2023-11-04T14:50:19Z</time>
      </trkpt>
      <trkpt lat="47.53276" lon="-1.45864">
        <ele>45</ele>
        <time>2023-11-04T14:50:46Z</time>
      </trkpt>
      <trkpt lat="47.53289" lon="-1.45837">
        <ele>45</ele>
        <time>2023-11-04T14:51:16Z</time>
      </trkpt>
      <trkpt lat="47.5336" lon="-1.45724">
        <ele>46</ele>
        <time>2023-11-04T14:53:35Z</time>
      </trkpt>
      <trkpt lat="47.53375" lon="-1.45704">
        <ele>46</ele>
        <time>2023-11-04T14:54:02Z</time>
      </trkpt>
      <trkpt lat="47.53442" lon="-1.45632">
        <ele>45</ele>
        <time>2023-11-04T14:55:53Z</time>
      </trkpt>
      <trkpt lat="47.53459" lon="-1.45624">
        <ele>44</ele>
        <time>2023-11-04T14:56:17Z</time>
      </trkpt>
      <trkpt lat="47.53459" lon="-1.45592">
        <ele>43</ele>
        <time>2023-11-04T14:56:45Z</time>
      </trkpt>
      <trkpt lat="47.53477" lon="-1.456">
        <ele>43</ele>
        <time>2023-11-04T14:57:10Z</time>
      </trkpt>
      <trkpt lat="47.53496" lon="-1.45579">
        <ele>43</ele>
        <time>2023-11-04T14:57:42Z</time>
      </trkpt>
      <trkpt lat="47.53518" lon="-1.45566">
        <ele>42</ele>
        <time>2023-11-04T14:58:14Z</time>
      </trkpt>
      <trkpt lat="47.53551" lon="-1.45529">
        <ele>41</ele>
        <time>2023-11-04T14:59:09Z</time>
      </trkpt>
      <trkpt lat="47.53566" lon="-1.45508">
        <ele>40</ele>
        <time>2023-11-04T14:59:36Z</time>
      </trkpt>
      <trkpt lat="47.53584" lon="-1.45492">
        <ele>39</ele>
        <time>2023-11-04T15:00:05Z</time>
      </trkpt>
      <trkpt lat="47.53621" lon="-1.45465">
        <ele>41</ele>
        <time>2023-11-04T15:01:00Z</time>
      </trkpt>
      <trkpt lat="47.53641" lon="-1.45452">
        <ele>42</ele>
        <time>2023-11-04T15:01:29Z</time>
      </trkpt>
      <trkpt lat="47.53664" lon="-1.45446">
        <ele>43</ele>
        <time>2023-11-04T15:02:00Z</time>
      </trkpt>
      <trkpt lat="47.53705" lon="-1.45421">
        <ele>43</ele>
        <time>2023-11-04T15:02:59Z</time>
      </trkpt>
      <trkpt lat="47.53726" lon="-1.45403">
        <ele>44</ele>
        <time>2023-11-04T15:03:31Z</time>
      </trkpt>
      <trkpt lat="47.53767" lon="-1.45376">
        <ele>45</ele>
        <time>2023-11-04T15:04:31Z</time>
      </trkpt>
      <trkpt lat="47.53785" lon="-1.45369">
        <ele>45</ele>
        <time>2023-11-04T15:04:56Z</time>
      </trkpt>
      <trkpt lat="47.53799" lon="-1.4535">
        <ele>45</ele>
        <time>2023-11-04T15:05:21Z</time>
      </trkpt>
      <trkpt lat="47.53845" lon="-1.45337">
        <ele>45</ele>
        <time>2023-11-04T15:06:24Z</time>
      </trkpt>
      <trkpt lat="47.53854" lon="-1.45322">
        <ele>45</ele>
        <time>2023-11-04T15:06:42Z</time>
      </trkpt>
      <trkpt lat="47.53869" lon="-1.45314">
        <ele>45</ele>
        <time>2023-11-04T15:07:03Z</time>
      </trkpt>
      <trkpt lat="47.53852" lon="-1.45292">
        <ele>46</ele>
        <time>2023-11-04T15:07:33Z</time>
      </trkpt>
      <trkpt lat="47.53898" lon="-1.45269">
        <ele>46</ele>
        <time>2023-11-04T15:08:38Z</time>
      </trkpt>
      <trkpt lat="47.53915" lon="-1.45254">
        <ele>46</ele>
        <time>2023-11-04T15:09:05Z</time>
      </trkpt>
      <trkpt lat="47.53933" lon="-1.45237">
        <ele>47</ele>
        <time>2023-11-04T15:09:33Z</time>
      </trkpt>
      <trkpt lat="47.53957" lon="-1.45194">
        <ele>47</ele>
        <time>2023-11-04T15:10:23Z</time>
      </trkpt>
      <trkpt lat="47.53967" lon="-1.45171">
        <ele>47</ele>
        <time>2023-11-04T15:10:48Z</time>
      </trkpt>
      <trkpt lat="47.53982" lon="-1.45145">
        <ele>48</ele>
        <time>2023-11-04T15:11:19Z</time>
      </trkpt>
      <trkpt lat="47.53983" lon="-1.45118">
        <ele>48</ele>
        <time>2023-11-04T15:11:43Z</time>
      </trkpt>
      <trkpt lat="47.5399" lon="-1.45084">
        <ele>49</ele>
        <time>2023-11-04T15:12:15Z</time>
      </trkpt>
      <trkpt lat="47.54004" lon="-1.45054">
        <ele>50</ele>
        <time>2023-11-04T15:12:48Z</time>
      </trkpt>
      <trkpt lat="47.54" lon="-1.45012">
        <ele>52</ele>
        <time>2023-11-04T15:13:26Z</time>
      </trkpt>
      <trkpt lat="47.54016" lon="-1.44995">
        <ele>51</ele>
        <time>2023-11-04T15:13:53Z</time>
      </trkpt>
      <trkpt lat="47.54039" lon="-1.44941">
        <ele>51</ele>
        <time>2023-11-04T15:14:50Z</time>
      </trkpt>
      <trkpt lat="47.54056" lon="-1.44886">
        <ele>50</ele>
        <time>2023-11-04T15:15:45Z</time>
      </trkpt>
      <trkpt lat="47.54057" lon="-1.44858">
        <ele>50</ele>
        <time>2023-11-04T15:16:10Z</time>
      </trkpt>
      <trkpt lat="47.54048" lon="-1.44833">
        <ele>50</ele>
        <time>2023-11-04T15:16:35Z</time>
      </trkpt>
      <trkpt lat="47.54042" lon="-1.44805">
        <ele>50</ele>
        <time>2023-11-04T15:17:02Z</time>
      </trkpt>
      <trkpt lat="47.54043" lon="-1.44776">
        <ele>49</ele>
        <time>2023-11-04T15:17:28Z</time>
      </trkpt>
      <trkpt lat="47.54031" lon="-1.4472">
        <ele>49</ele>
        <time>2023-11-04T15:18:21Z</time>
      </trkpt>
      <trkpt lat="47.54026" lon="-1.44658">
        <ele>48</ele>
        <time>2023-11-04T15:19:17Z</time>
      </trkpt>
      <trkpt lat="47.5403" lon="-1.44627">
        <ele>48</ele>
        <time>2023-11-04T15:19:46Z</time>
      </trkpt>
      <trkpt lat="47.54047" lon="-1.44567">
        <ele>47</ele>
        <time>2023-11-04T15:20:44Z</time>
      </trkpt>
      <trkpt lat="47.54059" lon="-1.44508">
        <ele>46</ele>
        <time>2023-11-04T15:21:40Z</time>
      </trkpt>
      <trkpt lat="47.5406" lon="-1.44444">
        <ele>45</ele>
        <time>2023-11-04T15:22:37Z</time>
      </trkpt>
      <trkpt lat="47.54055" lon="-1.44419">
        <ele>45</ele>
        <time>2023-11-04T15:23:01Z</time>
      </trkpt>
      <trkpt lat="47.54044" lon="-1.44325">
        <ele>44</ele>
        <time>2023-11-04T15:24:27Z</time>
      </trkpt>
      <trkpt lat="47.54036" lon="-1.44295">
        <ele>44</ele>
        <time>2023-11-04T15:24:56Z</time>
      </trkpt>
      <trkpt lat="47.54022" lon="-1.44137">
        <ele>42</ele>
        <time>2023-11-04T15:27:19Z</time>
      </trkpt>
      <trkpt lat="47.54006" lon="-1.4405">
        <ele>41</ele>
        <time>2023-11-04T15:28:41Z</time>
      </trkpt>
      <trkpt lat="47.53991" lon="-1.43996">
        <ele>41</ele>
        <time>2023-11-04T15:29:33Z</time>
      </trkpt>
      <trkpt lat="47.54" lon="-1.43972">
        <ele>39</ele>
        <time>2023-11-04T15:29:58Z</time>
      </trkpt>
      <trkpt lat="47.53982" lon="-1.43964">
        <ele>41</ele>
        <time>2023-11-04T15:30:23Z</time>
      </trkpt>
      <trkpt lat="47.53967" lon="-1.43947">
        <ele>42</ele>
        <time>2023-11-04T15:30:48Z</time>
      </trkpt>
      <trkpt lat="47.5395" lon="-1.43933">
        <ele>43</ele>
        <time>2023-11-04T15:31:14Z</time>
      </trkpt>
      <trkpt lat="47.53932" lon="-1.439">
        <ele>43</ele>
        <time>2023-11-04T15:31:52Z</time>
      </trkpt>
      <trkpt lat="47.53893" lon="-1.43874">
        <ele>43</ele>
        <time>2023-11-04T15:32:50Z</time>
      </trkpt>
      <trkpt lat="47.53856" lon="-1.43855">
        <ele>42</ele>
        <time>2023-11-04T15:33:42Z</time>
      </trkpt>
      <trkpt lat="47.53837" lon="-1.43838">
        <ele>42</ele>
        <time>2023-11-04T15:34:11Z</time>
      </trkpt>
      <trkpt lat="47.538" lon="-1.43836">
        <ele>43</ele>
        <time>2023-11-04T15:35:01Z</time>
      </trkpt>
      <trkpt lat="47.53775" lon="-1.43824">
        <ele>43</ele>
        <time>2023-11-04T15:35:36Z</time>
      </trkpt>
      <trkpt lat="47.53761" lon="-1.43807">
        <ele>42</ele>
        <time>2023-11-04T15:36:00Z</time>
      </trkpt>
      <trkpt lat="47.53701" lon="-1.43779">
        <ele>44</ele>
        <time>2023-11-04T15:37:24Z</time>
      </trkpt>
      <trkpt lat="47.53684" lon="-1.43763">
        <ele>45</ele>
        <time>2023-11-04T15:37:51Z</time>
      </trkpt>
      <trkpt lat="47.53686" lon="-1.43707">
        <ele>44</ele>
        <time>2023-11-04T15:38:41Z</time>
      </trkpt>
      <trkpt lat="47.53691" lon="-1.43679">
        <ele>44</ele>
        <time>2023-11-04T15:39:07Z</time>
      </trkpt>
      <trkpt lat="47.53693" lon="-1.43649">
        <ele>43</ele>
        <time>2023-11-04T15:39:35Z</time>
      </trkpt>
      <trkpt lat="47.53683" lon="-1.43619">
        <ele>44</ele>
        <time>2023-11-04T15:40:05Z</time>
      </trkpt>
      <trkpt lat="47.53683" lon="-1.43585">
        <ele>44</ele>
        <time>2023-11-04T15:40:35Z</time>
      </trkpt>
      <trkpt lat="47.53671" lon="-1.43529">
        <ele>43</ele>
        <time>2023-11-04T15:41:28Z</time>
      </trkpt>
      <trkpt lat="47.53675" lon="-1.43501">
        <ele>42</ele>
        <time>2023-11-04T15:41:54Z</time>
      </trkpt>
      <trkpt lat="47.53674" lon="-1.43472">
        <ele>41</ele>
        <time>2023-11-04T15:42:20Z</time>
      </trkpt>
      <trkpt lat="47.53679" lon="-1.43476">
        <ele>41</ele>
        <time>2023-11-04T15:42:28Z</time>
      </trkpt>
      <trkpt lat="47.53667" lon="-1.43501">
        <ele>42</ele>
        <time>2023-11-04T15:42:56Z</time>
      </trkpt>
      <trkpt lat="47.53654" lon="-1.43481">
        <ele>42</ele>
        <time>2023-11-04T15:43:21Z</time>
      </trkpt>
      <trkpt lat="47.53637" lon="-1.43468">
        <ele>43</ele>
        <time>2023-11-04T15:43:46Z</time>
      </trkpt>
      <trkpt lat="47.53639" lon="-1.43437">
        <ele>42</ele>
        <time>2023-11-04T15:44:14Z</time>
      </trkpt>
      <trkpt lat="47.53615" lon="-1.43364">
        <ele>40</ele>
        <time>2023-11-04T15:45:27Z</time>
      </trkpt>
      <trkpt lat="47.53596" lon="-1.43349">
        <ele>40</ele>
        <time>2023-11-04T15:45:56Z</time>
      </trkpt>
      <trkpt lat="47.53576" lon="-1.43347">
        <ele>40</ele>
        <time>2023-11-04T15:46:23Z</time>
      </trkpt>
      <trkpt lat="47.53558" lon="-1.43338">
        <ele>40</ele>
        <time>2023-11-04T15:46:48Z</time>
      </trkpt>
      <trkpt lat="47.53539" lon="-1.43354">
        <ele>41</ele>
        <time>2023-11-04T15:47:17Z</time>
      </trkpt>
      <trkpt lat="47.53495" lon="-1.43381">
        <ele>44</ele>
        <time>2023-11-04T15:48:21Z</time>
      </trkpt>
      <trkpt lat="47.53465" lon="-1.43349">
        <ele>42</ele>
        <time>2023-11-04T15:49:10Z</time>
      </trkpt>
      <trkpt lat="47.53461" lon="-1.43376">
        <ele>43</ele>
        <time>2023-11-04T15:49:35Z</time>
      </trkpt>
      <trkpt lat="47.53442" lon="-1.43389">
        <ele>43</ele>
        <time>2023-11-04T15:50:03Z</time>
      </trkpt>
      <trkpt lat="47.53434" lon="-1.43431">
        <ele>45</ele>
        <time>2023-11-04T15:50:42Z</time>
      </trkpt>
      <trkpt lat="47.53413" lon="-1.43437">
        <ele>45</ele>
        <time>2023-11-04T15:51:11Z</time>
      </trkpt>
      <trkpt lat="47.5339" lon="-1.43437">
        <ele>44</ele>
        <time>2023-11-04T15:51:42Z</time>
      </trkpt>
      <trkpt lat="47.53367" lon="-1.43428">
        <ele>42</ele>
        <time>2023-11-04T15:52:13Z</time>
      </trkpt>
      <trkpt lat="47.53352" lon="-1.43446">
        <ele>43</ele>
        <time>2023-11-04T15:52:39Z</time>
      </trkpt>
      <trkpt lat="47.53349" lon="-1.43476">
        <ele>45</ele>
        <time>2023-11-04T15:53:06Z</time>
      </trkpt>
      <trkpt lat="47.5335" lon="-1.43504">
        <ele>46</ele>
        <time>2023-11-04T15:53:32Z</time>
      </trkpt>
      <trkpt lat="47.53344" lon="-1.43537">
        <ele>48</ele>
        <time>2023-11-04T15:54:02Z</time>
      </trkpt>
      <trkpt lat="47.53329" lon="-1.43558">
        <ele>48</ele>
        <time>2023-11-04T15:54:30Z</time>
      </trkpt>
      <trkpt lat="47.53308" lon="-1.43569">
        <ele>47</ele>
        <time>2023-11-04T15:55:00Z</time>
      </trkpt>
      <trkpt lat="47.53277" lon="-1.43597">
        <ele>44</ele>
        <time>2023-11-04T15:55:48Z</time>
      </trkpt>
      <trkpt lat="47.53223" lon="-1.43632">
        <ele>42</ele>
        <time>2023-11-04T15:57:07Z</time>
      </trkpt>
      <trkpt lat="47.53207" lon="-1.43646">
        <ele>42</ele>
        <time>2023-11-04T15:57:32Z</time>
      </trkpt>
      <trkpt lat="47.5317" lon="-1.4367">
        <ele>42</ele>
        <time>2023-11-04T15:58:26Z</time>
      </trkpt>
      <trkpt lat="47.53162" lon="-1.43698">
        <ele>42</ele>
        <time>2023-11-04T15:58:53Z</time>
      </trkpt>
      <trkpt lat="47.53165" lon="-1.4373">
        <ele>43</ele>
        <time>2023-11-04T15:59:22Z</time>
      </trkpt>
      <trkpt lat="47.53175" lon="-1.43756">
        <ele>44</ele>
        <time>2023-11-04T15:59:49Z</time>
      </trkpt>
      <trkpt lat="47.53197" lon="-1.43869">
        <ele>50</ele>
        <time>2023-11-04T16:01:35Z</time>
      </trkpt>
      <trkpt lat="47.532" lon="-1.43964">
        <ele>51</ele>
        <time>2023-11-04T16:03:01Z</time>
      </trkpt>
      <trkpt lat="47.53206" lon="-1.43993">
        <ele>52</ele>
        <time>2023-11-04T16:03:28Z</time>
      </trkpt>
      <trkpt lat="47.53233" lon="-1.44073">
        <ele>54</ele>
        <time>2023-11-04T16:04:49Z</time>
      </trkpt>
      <trkpt lat="47.5328" lon="-1.4424">
        <ele>57</ele>
        <time>2023-11-04T16:07:32Z</time>
      </trkpt>
      <trkpt lat="47.5329" lon="-1.44265">
        <ele>57</ele>
        <time>2023-11-04T16:07:58Z</time>
      </trkpt>
      <trkpt lat="47.53329" lon="-1.44331">
        <ele>58</ele>
        <time>2023-11-04T16:09:17Z</time>
      </trkpt>
      <trkpt lat="47.53341" lon="-1.44356">
        <ele>57</ele>
        <time>2023-11-04T16:09:44Z</time>
      </trkpt>
      <trkpt lat="47.53349" lon="-1.44385">
        <ele>57</ele>
        <time>2023-11-04T16:10:13Z</time>
      </trkpt>
      <trkpt lat="47.53376" lon="-1.44459">
        <ele>58</ele>
        <time>2023-11-04T16:11:28Z</time>
      </trkpt>
      <trkpt lat="47.53387" lon="-1.44483">
        <ele>59</ele>
        <time>2023-11-04T16:11:55Z</time>
      </trkpt>
      <trkpt lat="47.53371" lon="-1.445">
        <ele>58</ele>
        <time>2023-11-04T16:12:21Z</time>
      </trkpt>
      <trkpt lat="47.53332" lon="-1.44518">
        <ele>57</ele>
        <time>2023-11-04T16:13:15Z</time>
      </trkpt>
      <trkpt lat="47.53295" lon="-1.44546">
        <ele>57</ele>
        <time>2023-11-04T16:14:11Z</time>
      </trkpt>
      <trkpt lat="47.53277" lon="-1.44553">
        <ele>56</ele>
        <time>2023-11-04T16:14:36Z</time>
      </trkpt>
      <trkpt lat="47.53195" lon="-1.44569">
        <ele>55</ele>
        <time>2023-11-04T16:16:26Z</time>
      </trkpt>
      <trkpt lat="47.53177" lon="-1.44569">
        <ele>54</ele>
        <time>2023-11-04T16:16:50Z</time>
      </trkpt>
      <trkpt lat="47.53138" lon="-1.44552">
        <ele>52</ele>
        <time>2023-11-04T16:17:44Z</time>
      </trkpt>
      <trkpt lat="47.53118" lon="-1.44558">
        <ele>52</ele>
        <time>2023-11-04T16:18:11Z</time>
      </trkpt>
      <trkpt lat="47.53098" lon="-1.44574">
        <ele>53</ele>
        <time>2023-11-04T16:18:42Z</time>
      </trkpt>
      <trkpt lat="47.53064" lon="-1.44608">
        <ele>52</ele>
        <time>2023-11-04T16:19:37Z</time>
      </trkpt>
      <trkpt lat="47.53046" lon="-1.44621">
        <ele>51</ele>
        <time>2023-11-04T16:20:03Z</time>
      </trkpt>
      <trkpt lat="47.53007" lon="-1.44635">
        <ele>47</ele>
        <time>2023-11-04T16:20:57Z</time>
      </trkpt>
      <trkpt lat="47.52951" lon="-1.44676">
        <ele>46</ele>
        <time>2023-11-04T16:22:20Z</time>
      </trkpt>
      <trkpt lat="47.52937" lon="-1.44694">
        <ele>46</ele>
        <time>2023-11-04T16:22:45Z</time>
      </trkpt>
      <trkpt lat="47.52932" lon="-1.4472">
        <ele>46</ele>
        <time>2023-11-04T16:23:09Z</time>
      </trkpt>
      <trkpt lat="47.52933" lon="-1.44747">
        <ele>46</ele>
        <time>2023-11-04T16:23:34Z</time>
      </trkpt>
      <trkpt lat="47.5293" lon="-1.44776">
        <ele>46</ele>
        <time>2023-11-04T16:24:00Z</time>
      </trkpt>
      <trkpt lat="47.52911" lon="-1.44792">
        <ele>46</ele>
        <time>2023-11-04T16:24:29Z</time>
      </trkpt>
      <trkpt lat="47.52889" lon="-1.44802">
        <ele>44</ele>
        <time>2023-11-04T16:25:00Z</time>
      </trkpt>
      <trkpt lat="47.5274" lon="-1.44851">
        <ele>36</ele>
        <time>2023-11-04T16:28:24Z</time>
      </trkpt>
      <trkpt lat="47.52725" lon="-1.44868">
        <ele>35</ele>
        <time>2023-11-04T16:28:49Z</time>
      </trkpt>
      <trkpt lat="47.527" lon="-1.44859">
        <ele>36</ele>
        <time>2023-11-04T16:29:23Z</time>
      </trkpt>
      <trkpt lat="47.5266" lon="-1.44877">
        <ele>35</ele>
        <time>2023-11-04T16:30:19Z</time>
      </trkpt>
      <trkpt lat="47.526" lon="-1.44898">
        <ele>33</ele>
        <time>2023-11-04T16:31:41Z</time>
      </trkpt>
      <trkpt lat="47.52584" lon="-1.44915">
        <ele>33</ele>
        <time>2023-11-04T16:32:08Z</time>
      </trkpt>
      <trkpt lat="47.52594" lon="-1.44931">
        <ele>33</ele>
        <time>2023-11-04T16:32:27Z</time>
      </trkpt>
      <trkpt lat="47.52604" lon="-1.44935">
        <ele>34</ele>
        <time>2023-11-04T16:32:41Z</time>
      </trkpt>
      <trkpt lat="47.5262" lon="-1.44956">
        <ele>34</ele>
        <time>2023-11-04T16:33:10Z</time>
      </trkpt>
      <trkpt lat="47.52629" lon="-1.44981">
        <ele>34</ele>
        <time>2023-11-04T16:33:35Z</time>
      </trkpt>
      <trkpt lat="47.52652" lon="-1.45002">
        <ele>33</ele>
        <time>2023-11-04T16:34:11Z</time>
      </trkpt>
      <trkpt lat="47.52671" lon="-1.4503">
        <ele>33</ele>
        <time>2023-11-04T16:34:47Z</time>
      </trkpt>
      <trkpt lat="47.52695" lon="-1.45057">
        <ele>33</ele>
        <time>2023-11-04T16:35:27Z</time>
      </trkpt>
      <trkpt lat="47.52707" lon="-1.45077">
        <ele>33</ele>
        <time>2023-11-04T16:35:51Z</time>
      </trkpt>
      <trkpt lat="47.52765" lon="-1.45152">
        <ele>33</ele>
        <time>2023-11-04T16:37:34Z</time>
      </trkpt>
      <trkpt lat="47.52803" lon="-1.45188">
        <ele>33</ele>
        <time>2023-11-04T16:38:34Z</time>
      </trkpt>
      <trkpt lat="47.52802" lon="-1.45227">
        <ele>33</ele>
        <time>2023-11-04T16:39:09Z</time>
      </trkpt>
      <trkpt lat="47.52788" lon="-1.45302">
        <ele>33</ele>
        <time>2023-11-04T16:40:19Z</time>
      </trkpt>
      <trkpt lat="47.52784" lon="-1.45341">
        <ele>33</ele>
        <time>2023-11-04T16:40:55Z</time>
      </trkpt>
      <trkpt lat="47.52767" lon="-1.45431">
        <ele>32</ele>
        <time>2023-11-04T16:42:19Z</time>
      </trkpt>
      <trkpt lat="47.52759" lon="-1.45456">
        <ele>32</ele>
        <time>2023-11-04T16:42:44Z</time>
      </trkpt>
      <trkpt lat="47.5275" lon="-1.45516">
        <ele>32</ele>
        <time>2023-11-04T16:43:40Z</time>
      </trkpt>
      <trkpt lat="47.52743" lon="-1.45543">
        <ele>33</ele>
        <time>2023-11-04T16:44:06Z</time>
      </trkpt>
      <trkpt lat="47.5273" lon="-1.45631">
        <ele>33</ele>
        <time>2023-11-04T16:45:27Z</time>
      </trkpt>
      <trkpt lat="47.5271" lon="-1.45719">
        <ele>35</ele>
        <time>2023-11-04T16:46:50Z</time>
      </trkpt>
      <trkpt lat="47.52718" lon="-1.45745">
        <ele>35</ele>
        <time>2023-11-04T16:47:16Z</time>
      </trkpt>
      <trkpt lat="47.52722" lon="-1.45776">
        <ele>35</ele>
        <time>2023-11-04T16:47:45Z</time>
      </trkpt>
      <trkpt lat="47.52739" lon="-1.45804">
        <ele>35</ele>
        <time>2023-11-04T16:48:19Z</time>
      </trkpt>
      <trkpt lat="47.52743" lon="-1.45839">
        <ele>35</ele>
        <time>2023-11-04T16:48:51Z</time>
      </trkpt>
      <trkpt lat="47.52751" lon="-1.45866">
        <ele>36</ele>
        <time>2023-11-04T16:49:17Z</time>
      </trkpt>
      <trkpt lat="47.52753" lon="-1.45893">
        <ele>36</ele>
        <time>2023-11-04T16:49:42Z</time>
      </trkpt>
      <trkpt lat="47.5276" lon="-1.45919">
        <ele>37</ele>
        <time>2023-11-04T16:50:07Z</time>
      </trkpt>
      <trkpt lat="47.52774" lon="-1.45936">
        <ele>37</ele>
        <time>2023-11-04T16:50:31Z</time>
      </trkpt>
      <trkpt lat="47.52772" lon="-1.45953">
        <ele>37</ele>
        <time>2023-11-04T16:50:46Z</time>
      </trkpt>
      <trkpt lat="47.52775" lon="-1.45973">
        <ele>37</ele>
        <time>2023-11-04T16:51:05Z</time>
      </trkpt>
      <trkpt lat="47.52788" lon="-1.46025">
        <ele>37</ele>
        <time>2023-11-04T16:51:55Z</time>
      </trkpt>
      <trkpt lat="47.52798" lon="-1.46054">
        <ele>38</ele>
        <time>2023-11-04T16:52:24Z</time>
      </trkpt>
      <trkpt lat="47.52796" lon="-1.46084">
        <ele>38</ele>
        <time>2023-11-04T16:52:51Z</time>
      </trkpt>
      <trkpt lat="47.5279" lon="-1.46111">
        <ele>38</ele>
        <time>2023-11-04T16:53:17Z</time>
      </trkpt>
      <trkpt lat="47.52768" lon="-1.46149">
        <ele>38</ele>
        <time>2023-11-04T16:54:02Z</time>
      </trkpt>
      <trkpt lat="47.52738" lon="-1.46228">
        <ele>38</ele>
        <time>2023-11-04T16:55:24Z</time>
      </trkpt>
      <trkpt lat="47.52705" lon="-1.46305">
        <ele>39</ele>
        <time>2023-11-04T16:56:46Z</time>
      </trkpt>
      <trkpt lat="47.52669" lon="-1.46377">
        <ele>41</ele>
        <time>2023-11-04T16:58:07Z</time>
      </trkpt>
      <trkpt lat="47.52662" lon="-1.46407">
        <ele>41</ele>
        <time>2023-11-04T16:58:35Z</time>
      </trkpt>
      <trkpt lat="47.52644" lon="-1.46433">
        <ele>40</ele>
        <time>2023-11-04T16:59:09Z</time>
      </trkpt>
      <trkpt lat="47.52648" lon="-1.46524">
        <ele>41</ele>
        <time>2023-11-04T17:00:31Z</time>
      </trkpt>
      <trkpt lat="47.52646" lon="-1.46585">
        <ele>41</ele>
        <time>2023-11-04T17:01:26Z</time>
      </trkpt>
      <trkpt lat="47.52651" lon="-1.46615">
        <ele>42</ele>
        <time>2023-11-04T17:01:54Z</time>
      </trkpt>
      <trkpt lat="47.5265" lon="-1.46737">
        <ele>44</ele>
        <time>2023-11-04T17:03:44Z</time>
      </trkpt>
      <trkpt lat="47.52654" lon="-1.46793">
        <ele>45</ele>
        <time>2023-11-04T17:04:35Z</time>
      </trkpt>
      <trkpt lat="47.52643" lon="-1.46831">
        <ele>46</ele>
        <time>2023-11-04T17:05:12Z</time>
      </trkpt>
      <trkpt lat="47.52643" lon="-1.46916">
        <ele>47</ele>
        <time>2023-11-04T17:06:28Z</time>
      </trkpt>
      <trkpt lat="47.52646" lon="-1.46947">
        <ele>48</ele>
        <time>2023-11-04T17:06:57Z</time>
      </trkpt>
      <trkpt lat="47.52644" lon="-1.4699">
        <ele>49</ele>
        <time>2023-11-04T17:07:35Z</time>
      </trkpt>
      <trkpt lat="47.52654" lon="-1.46992">
        <ele>49</ele>
        <time>2023-11-04T17:07:49Z</time>
      </trkpt>
      <trkpt lat="47.52658" lon="-1.47046">
        <ele>51</ele>
        <time>2023-11-04T17:08:38Z</time>
      </trkpt>
      <trkpt lat="47.52651" lon="-1.47071">
        <ele>51</ele>
        <time>2023-11-04T17:09:02Z</time>
      </trkpt>
      <trkpt lat="47.52654" lon="-1.47132">
        <ele>50</ele>
        <time>2023-11-04T17:09:57Z</time>
      </trkpt>
      <trkpt lat="47.52647" lon="-1.47171">
        <ele>49</ele>
        <time>2023-11-04T17:10:34Z</time>
      </trkpt>
      <trkpt lat="47.52643" lon="-1.47215">
        <ele>50</ele>
        <time>2023-11-04T17:11:14Z</time>
      </trkpt>
      <trkpt lat="47.52651" lon="-1.47245">
        <ele>52</ele>
        <time>2023-11-04T17:11:43Z</time>
      </trkpt>
      <trkpt lat="47.52657" lon="-1.4728">
        <ele>51</ele>
        <time>2023-11-04T17:12:15Z</time>
      </trkpt>
      <trkpt lat="47.52654" lon="-1.47309">
        <ele>50</ele>
        <time>2023-11-04T17:12:42Z</time>
      </trkpt>
      <trkpt lat="47.52654" lon="-1.47399">
        <ele>49</ele>
        <time>2023-11-04T17:14:03Z</time>
      </trkpt>
      <trkpt lat="47.5265" lon="-1.47433">
        <ele>49</ele>
        <time>2023-11-04T17:14:34Z</time>
      </trkpt>
      <trkpt lat="47.52656" lon="-1.47468">
        <ele>48</ele>
        <time>2023-11-04T17:15:07Z</time>
      </trkpt>
      <trkpt lat="47.52655" lon="-1.47562">
        <ele>46</ele>
        <time>2023-11-04T17:16:31Z</time>
      </trkpt>
      <trkpt lat="47.52651" lon="-1.4759">
        <ele>45</ele>
        <time>2023-11-04T17:16:57Z</time>
      </trkpt>
      <trkpt lat="47.52655" lon="-1.47649">
        <ele>45</ele>
        <time>2023-11-04T17:17:50Z</time>
      </trkpt>
      <trkpt lat="47.52645" lon="-1.47671">
        <ele>45</ele>
        <time>2023-11-04T17:18:14Z</time>
      </trkpt>
      <trkpt lat="47.52673" lon="-1.47662">
        <ele>45</ele>
        <time>2023-11-04T17:18:53Z</time>
      </trkpt>
      <trkpt lat="47.52649" lon="-1.47672">
        <ele>45</ele>
        <time>2023-11-04T17:19:26Z</time>
      </trkpt>
      <trkpt lat="47.5263" lon="-1.47673">
        <ele>45</ele>
        <time>2023-11-04T17:19:51Z</time>
      </trkpt>
      <trkpt lat="47.52607" lon="-1.47687">
        <ele>45</ele>
        <time>2023-11-04T17:20:24Z</time>
      </trkpt>
      <trkpt lat="47.52569" lon="-1.4767">
        <ele>44</ele>
        <time>2023-11-04T17:21:17Z</time>
      </trkpt>
      <trkpt lat="47.52446" lon="-1.4768">
        <ele>44</ele>
        <time>2023-11-04T17:24:02Z</time>
      </trkpt>
      <trkpt lat="47.52442" lon="-1.47708">
        <ele>44</ele>
        <time>2023-11-04T17:24:28Z</time>
      </trkpt>
      <trkpt lat="47.52448" lon="-1.47915">
        <ele>43</ele>
        <time>2023-11-04T17:27:34Z</time>
      </trkpt>
      <trkpt lat="47.52446" lon="-1.48001">
        <ele>43</ele>
        <time>2023-11-04T17:28:52Z</time>
      </trkpt>
      <trkpt lat="47.52434" lon="-1.48141">
        <ele>43</ele>
        <time>2023-11-04T17:30:59Z</time>
      </trkpt>
      <trkpt lat="47.52427" lon="-1.4826">
        <ele>42</ele>
        <time>2023-11-04T17:32:47Z</time>
      </trkpt>
      <trkpt lat="47.52422" lon="-1.48291">
        <ele>42</ele>
        <time>2023-11-04T17:33:15Z</time>
      </trkpt>
      <trkpt lat="47.52424" lon="-1.48321">
        <ele>43</ele>
        <time>2023-11-04T17:33:43Z</time>
      </trkpt>
      <trkpt lat="47.52415" lon="-1.48382">
        <ele>42</ele>
        <time>2023-11-04T17:34:39Z</time>
      </trkpt>
      <trkpt lat="47.52408" lon="-1.485">
        <ele>42</ele>
        <time>2023-11-04T17:36:26Z</time>
      </trkpt>
      <trkpt lat="47.52398" lon="-1.48616">
        <ele>43</ele>
        <time>2023-11-04T17:38:11Z</time>
      </trkpt>
      <trkpt lat="47.52416" lon="-1.4863">
        <ele>43</ele>
        <time>2023-11-04T17:38:38Z</time>
      </trkpt>
      <trkpt lat="47.52536" lon="-1.48591">
        <ele>42</ele>
        <time>2023-11-04T17:41:22Z</time>
      </trkpt>
      <trkpt lat="47.52551" lon="-1.48558">
        <ele>42</ele>
        <time>2023-11-04T17:41:58Z</time>
      </trkpt>
      <trkpt lat="47.52576" lon="-1.48576">
        <ele>43</ele>
        <time>2023-11-04T17:42:35Z</time>
      </trkpt>
      <trkpt lat="47.52597" lon="-1.4857">
        <ele>43</ele>
        <time>2023-11-04T17:43:04Z</time>
      </trkpt>
      <trkpt lat="47.52613" lon="-1.48591">
        <ele>43</ele>
        <time>2023-11-04T17:43:32Z</time>
      </trkpt>
      <trkpt lat="47.52624" lon="-1.48616">
        <ele>43</ele>
        <time>2023-11-04T17:43:59Z</time>
      </trkpt>
      <trkpt lat="47.52639" lon="-1.48642">
        <ele>43</ele>
        <time>2023-11-04T17:44:30Z</time>
      </trkpt>
      <trkpt lat="47.52655" lon="-1.48656">
        <ele>43</ele>
        <time>2023-11-04T17:44:55Z</time>
      </trkpt>
      <trkpt lat="47.52689" lon="-1.48739">
        <ele>43</ele>
        <time>2023-11-04T17:46:22Z</time>
      </trkpt>
      <trkpt lat="47.52697" lon="-1.48765">
        <ele>43</ele>
        <time>2023-11-04T17:46:48Z</time>
      </trkpt>
      <trkpt lat="47.52726" lon="-1.4881">
        <ele>42</ele>
        <time>2023-11-04T17:47:44Z</time>
      </trkpt>
      <trkpt lat="47.52745" lon="-1.48826">
        <ele>42</ele>
        <time>2023-11-04T17:48:13Z</time>
      </trkpt>
      <trkpt lat="47.52754" lon="-1.48851">
        <ele>42</ele>
        <time>2023-11-04T17:48:39Z</time>
      </trkpt>
      <trkpt lat="47.52737" lon="-1.48827">
        <ele>42</ele>
        <time>2023-11-04T17:49:10Z</time>
      </trkpt>
      <trkpt lat="47.52756" lon="-1.48838">
        <ele>42</ele>
        <time>2023-11-04T17:49:37Z</time>
      </trkpt>
      <trkpt lat="47.52786" lon="-1.48834">
        <ele>42</ele>
        <time>2023-11-04T17:50:17Z</time>
      </trkpt>
      <trkpt lat="47.52801" lon="-1.48783">
        <ele>42</ele>
        <time>2023-11-04T17:51:07Z</time>
      </trkpt>
      <trkpt lat="47.52782" lon="-1.48812">
        <ele>42</ele>
        <time>2023-11-04T17:51:44Z</time>
      </trkpt>
      <trkpt lat="47.52757" lon="-1.48833">
        <ele>42</ele>
        <time>2023-11-04T17:52:22Z</time>
      </trkpt>
      <trkpt lat="47.5277" lon="-1.48807">
        <ele>42</ele>
        <time>2023-11-04T17:52:51Z</time>
      </trkpt>
      <trkpt lat="47.52778" lon="-1.4878">
        <ele>42</ele>
        <time>2023-11-04T17:53:18Z</time>
      </trkpt>
      <trkpt lat="47.5279" lon="-1.48758">
        <ele>42</ele>
        <time>2023-11-04T17:53:43Z</time>
      </trkpt>
      <trkpt lat="47.5281" lon="-1.48747">
        <ele>42</ele>
        <time>2023-11-04T17:54:12Z</time>
      </trkpt>
      <trkpt lat="47.52831" lon="-1.48742">
        <ele>42</ele>
        <time>2023-11-04T17:54:40Z</time>
      </trkpt>
      <trkpt lat="47.52853" lon="-1.4873">
        <ele>43</ele>
        <time>2023-11-04T17:55:12Z</time>
      </trkpt>
      <trkpt lat="47.5287" lon="-1.48715">
        <ele>44</ele>
        <time>2023-11-04T17:55:38Z</time>
      </trkpt>
      <trkpt lat="47.52891" lon="-1.48705">
        <ele>45</ele>
        <time>2023-11-04T17:56:07Z</time>
      </trkpt>
      <trkpt lat="47.5291" lon="-1.48711">
        <ele>46</ele>
        <time>2023-11-04T17:56:33Z</time>
      </trkpt>
      <trkpt lat="47.52931" lon="-1.48711">
        <ele>46</ele>
        <time>2023-11-04T17:57:01Z</time>
      </trkpt>
      <trkpt lat="47.52949" lon="-1.48688">
        <ele>47</ele>
        <time>2023-11-04T17:57:33Z</time>
      </trkpt>
      <trkpt lat="47.52946" lon="-1.48725">
        <ele>47</ele>
        <time>2023-11-04T17:58:07Z</time>
      </trkpt>
      <trkpt lat="47.52928" lon="-1.48744">
        <ele>46</ele>
        <time>2023-11-04T17:58:36Z</time>
      </trkpt>
      <trkpt lat="47.52948" lon="-1.48734">
        <ele>47</ele>
        <time>2023-11-04T17:59:04Z</time>
      </trkpt>
      <trkpt lat="47.52962" lon="-1.48755">
        <ele>47</ele>
        <time>2023-11-04T17:59:31Z</time>
      </trkpt>
      <trkpt lat="47.52978" lon="-1.48727">
        <ele>47</ele>
        <time>2023-11-04T18:00:04Z</time>
      </trkpt>
      <trkpt lat="47.53004" lon="-1.48751">
        <ele>48</ele>
        <time>2023-11-04T18:00:45Z</time>
      </trkpt>
      <trkpt lat="47.53026" lon="-1.48754">
        <ele>48</ele>
        <time>2023-11-04T18:01:14Z</time>
      </trkpt>
      <trkpt lat="47.53067" lon="-1.48785">
        <ele>49</ele>
        <time>2023-11-04T18:02:16Z</time>
      </trkpt>
      <trkpt lat="47.53084" lon="-1.4879">
        <ele>49</ele>
        <time>2023-11-04T18:02:39Z</time>
      </trkpt>
      <trkpt lat="47.53102" lon="-1.48808">
        <ele>49</ele>
        <time>2023-11-04T18:03:08Z</time>
      </trkpt>
      <trkpt lat="47.53118" lon="-1.4883">
        <ele>49</ele>
        <time>2023-11-04T18:03:37Z</time>
      </trkpt>
      <trkpt lat="47.53154" lon="-1.48852">
        <ele>50</ele>
        <time>2023-11-04T18:04:29Z</time>
      </trkpt>
      <trkpt lat="47.53163" lon="-1.48877">
        <ele>50</ele>
        <time>2023-11-04T18:04:54Z</time>
      </trkpt>
      <trkpt lat="47.53165" lon="-1.48912">
        <ele>50</ele>
        <time>2023-11-04T18:05:26Z</time>
      </trkpt>
      <trkpt lat="47.53163" lon="-1.49006">
        <ele>50</ele>
        <time>2023-11-04T18:06:51Z</time>
      </trkpt>
      <trkpt lat="47.53158" lon="-1.49032">
        <ele>50</ele>
        <time>2023-11-04T18:07:15Z</time>
      </trkpt>
      <trkpt lat="47.53173" lon="-1.49052">
        <ele>49</ele>
        <time>2023-11-04T18:07:42Z</time>
      </trkpt>
      <trkpt lat="47.53194" lon="-1.49066">
        <ele>49</ele>
        <time>2023-11-04T18:08:13Z</time>
      </trkpt>
      <trkpt lat="47.53241" lon="-1.49085">
        <ele>48</ele>
        <time>2023-11-04T18:09:18Z</time>
      </trkpt>
      <trkpt lat="47.53262" lon="-1.49097">
        <ele>48</ele>
        <time>2023-11-04T18:09:48Z</time>
      </trkpt>
      <trkpt lat="47.53284" lon="-1.49089">
        <ele>48</ele>
        <time>2023-11-04T18:10:18Z</time>
      </trkpt>
      <trkpt lat="47.53302" lon="-1.49099">
        <ele>48</ele>
        <time>2023-11-04T18:10:44Z</time>
      </trkpt>
      <trkpt lat="47.53341" lon="-1.49105">
        <ele>47</ele>
        <time>2023-11-04T18:11:36Z</time>
      </trkpt>
      <trkpt lat="47.53361" lon="-1.49113">
        <ele>47</ele>
        <time>2023-11-04T18:12:04Z</time>
      </trkpt>
      <trkpt lat="47.53379" lon="-1.49134">
        <ele>47</ele>
        <time>2023-11-04T18:12:34Z</time>
      </trkpt>
      <trkpt lat="47.53392" lon="-1.49158">
        <ele>46</ele>
        <time>2023-11-04T18:13:02Z</time>
      </trkpt>
      <trkpt lat="47.53406" lon="-1.49174">
        <ele>46</ele>
        <time>2023-11-04T18:13:26Z</time>
      </trkpt>
      <trkpt lat="47.53429" lon="-1.49176">
        <ele>46</ele>
        <time>2023-11-04T18:13:56Z</time>
      </trkpt>
      <trkpt lat="47.53446" lon="-1.49165">
        <ele>46</ele>
        <time>2023-11-04T18:14:21Z</time>
      </trkpt>
      <trkpt lat="47.53462" lon="-1.49143">
        <ele>46</ele>
        <time>2023-11-04T18:14:50Z</time>
      </trkpt>
      <trkpt lat="47.53466" lon="-1.49115">
        <ele>46</ele>
        <time>2023-11-04T18:15:16Z</time>
      </trkpt>
      <trkpt lat="47.53463" lon="-1.49051">
        <ele>47</ele>
        <time>2023-11-04T18:16:14Z</time>
      </trkpt>
      <trkpt lat="47.53477" lon="-1.48993">
        <ele>48</ele>
        <time>2023-11-04T18:17:09Z</time>
      </trkpt>
      <trkpt lat="47.5348" lon="-1.48963">
        <ele>48</ele>
        <time>2023-11-04T18:17:37Z</time>
      </trkpt>
      <trkpt lat="47.53479" lon="-1.48874">
        <ele>49</ele>
        <time>2023-11-04T18:18:57Z</time>
      </trkpt>
      <trkpt lat="47.53482" lon="-1.48809">
        <ele>49</ele>
        <time>2023-11-04T18:19:56Z</time>
      </trkpt>
      <trkpt lat="47.53542" lon="-1.48819">
        <ele>49</ele>
        <time>2023-11-04T18:21:16Z</time>
      </trkpt>
      <trkpt lat="47.53563" lon="-1.48826">
        <ele>50</ele>
        <time>2023-11-04T18:21:45Z</time>
      </trkpt>
      <trkpt lat="47.53583" lon="-1.48827">
        <ele>50</ele>
        <time>2023-11-04T18:22:12Z</time>
      </trkpt>
      <trkpt lat="47.53624" lon="-1.48838">
        <ele>50</ele>
        <time>2023-11-04T18:23:07Z</time>
      </trkpt>
      <trkpt lat="47.53646" lon="-1.4884">
        <ele>50</ele>
        <time>2023-11-04T18:23:37Z</time>
      </trkpt>
      <trkpt lat="47.53745" lon="-1.48858">
        <ele>50</ele>
        <time>2023-11-04T18:25:50Z</time>
      </trkpt>
      <trkpt lat="47.53785" lon="-1.48869">
        <ele>50</ele>
        <time>2023-11-04T18:26:44Z</time>
      </trkpt>
      <trkpt lat="47.53826" lon="-1.48874">
        <ele>50</ele>
        <time>2023-11-04T18:27:39Z</time>
      </trkpt>
      <trkpt lat="47.5387" lon="-1.48891">
        <ele>51</ele>
        <time>2023-11-04T18:28:40Z</time>
      </trkpt>
      <trkpt lat="47.53886" lon="-1.48904">
        <ele>51</ele>
        <time>2023-11-04T18:29:04Z</time>
      </trkpt>
      <trkpt lat="47.53904" lon="-1.48891">
        <ele>51</ele>
        <time>2023-11-04T18:29:31Z</time>
      </trkpt>
      <trkpt lat="47.53923" lon="-1.48891">
        <ele>51</ele>
        <time>2023-11-04T18:29:56Z</time>
      </trkpt>
      <trkpt lat="47.53964" lon="-1.48903">
        <ele>52</ele>
        <time>2023-11-04T18:30:52Z</time>
      </trkpt>
      <trkpt lat="47.53984" lon="-1.48906">
        <ele>52</ele>
        <time>2023-11-04T18:31:19Z</time>
      </trkpt>
      <trkpt lat="47.54003" lon="-1.48904">
        <ele>52</ele>
        <time>2023-11-04T18:31:44Z</time>
      </trkpt>
      <trkpt lat="47.54023" lon="-1.48912">
        <ele>52</ele>
        <time>2023-11-04T18:32:12Z</time>
      </trkpt>
      <trkpt lat="47.54044" lon="-1.48917">
        <ele>52</ele>
        <time>2023-11-04T18:32:40Z</time>
      </trkpt>
      <trkpt lat="47.54063" lon="-1.48918">
        <ele>52</ele>
        <time>2023-11-04T18:33:05Z</time>
      </trkpt>
      <trkpt lat="47.54082" lon="-1.48925">
        <ele>52</ele>
        <time>2023-11-04T18:33:32Z</time>
      </trkpt>
      <trkpt lat="47.54184" lon="-1.48941">
        <ele>54</ele>
        <time>2023-11-04T18:35:48Z</time>
      </trkpt>
      <trkpt lat="47.54201" lon="-1.48948">
        <ele>54</ele>
        <time>2023-11-04T18:36:12Z</time>
      </trkpt>
      <trkpt lat="47.54221" lon="-1.48949">
        <ele>55</ele>
        <time>2023-11-04T18:36:39Z</time>
      </trkpt>
      <trkpt lat="47.5424" lon="-1.48946">
        <ele>55</ele>
        <time>2023-11-04T18:37:04Z</time>
      </trkpt>
      <trkpt lat="47.54255" lon="-1.48963">
        <ele>55</ele>
        <time>2023-11-04T18:37:29Z</time>
      </trkpt>
      <trkpt lat="47.54275" lon="-1.48962">
        <ele>55</ele>
        <time>2023-11-04T18:37:56Z</time>
      </trkpt>
      <trkpt lat="47.54296" lon="-1.48969">
        <ele>55</ele>
        <time>2023-11-04T18:38:25Z</time>
      </trkpt>
      <trkpt lat="47.5434" lon="-1.48977">
        <ele>55</ele>
        <time>2023-11-04T18:39:24Z</time>
      </trkpt>
      <trkpt lat="47.54378" lon="-1.48981">
        <ele>54</ele>
        <time>2023-11-04T18:40:15Z</time>
      </trkpt>
      <trkpt lat="47.54438" lon="-1.48992">
        <ele>55</ele>
        <time>2023-11-04T18:41:35Z</time>
      </trkpt>
      <trkpt lat="47.54457" lon="-1.48993">
        <ele>56</ele>
        <time>2023-11-04T18:42:01Z</time>
      </trkpt>
      <trkpt lat="47.5448" lon="-1.49003">
        <ele>56</ele>
        <time>2023-11-04T18:42:33Z</time>
      </trkpt>
      <trkpt lat="47.54499" lon="-1.49003">
        <ele>57</ele>
        <time>2023-11-04T18:42:58Z</time>
      </trkpt>
      <trkpt lat="47.54529" lon="-1.48997">
        <ele>58</ele>
        <time>2023-11-04T18:43:39Z</time>
      </trkpt>
      <trkpt lat="47.54529" lon="-1.48966">
        <ele>59</ele>
        <time>2023-11-04T18:44:07Z</time>
      </trkpt>
      <trkpt lat="47.54523" lon="-1.48906">
        <ele>60</ele>
        <time>2023-11-04T18:45:01Z</time>
      </trkpt>
      <trkpt lat="47.54517" lon="-1.48879">
        <ele>59</ele>
        <time>2023-11-04T18:45:27Z</time>
      </trkpt>
      <trkpt lat="47.54516" lon="-1.4885">
        <ele>59</ele>
        <time>2023-11-04T18:45:53Z</time>
      </trkpt>
      <trkpt lat="47.54537" lon="-1.48849">
        <ele>59</ele>
        <time>2023-11-04T18:46:21Z</time>
      </trkpt>
      <trkpt lat="47.54556" lon="-1.48858">
        <ele>60</ele>
        <time>2023-11-04T18:46:48Z</time>
      </trkpt>
      <trkpt lat="47.54633" lon="-1.48872">
        <ele>59</ele>
        <time>2023-11-04T18:48:31Z</time>
      </trkpt>
      <trkpt lat="47.54654" lon="-1.48872">
        <ele>59</ele>
        <time>2023-11-04T18:48:59Z</time>
      </trkpt>
      <trkpt lat="47.54675" lon="-1.48882">
        <ele>58</ele>
        <time>2023-11-04T18:49:29Z</time>
      </trkpt>
      <trkpt lat="47.54696" lon="-1.48874">
        <ele>58</ele>
        <time>2023-11-04T18:49:57Z</time>
      </trkpt>
      <trkpt lat="47.54736" lon="-1.48737">
        <ele>58</ele>
        <time>2023-11-04T18:52:12Z</time>
      </trkpt>
      <trkpt lat="47.54764" lon="-1.48625">
        <ele>58</ele>
        <time>2023-11-04T18:54:00Z</time>
      </trkpt>
      <trkpt lat="47.54773" lon="-1.48601">
        <ele>58</ele>
        <time>2023-11-04T18:54:24Z</time>
      </trkpt>
      <trkpt lat="47.54777" lon="-1.48533">
        <ele>59</ele>
        <time>2023-11-04T18:55:26Z</time>
      </trkpt>
      <trkpt lat="47.54795" lon="-1.4844">
        <ele>59</ele>
        <time>2023-11-04T18:56:53Z</time>
      </trkpt>
      <trkpt lat="47.54801" lon="-1.48382">
        <ele>59</ele>
        <time>2023-11-04T18:57:46Z</time>
      </trkpt>
      <trkpt lat="47.54801" lon="-1.48348">
        <ele>58</ele>
        <time>2023-11-04T18:58:16Z</time>
      </trkpt>
      <trkpt lat="47.54796" lon="-1.48287">
        <ele>59</ele>
        <time>2023-11-04T18:59:12Z</time>
      </trkpt>
      <trkpt lat="47.5479" lon="-1.48256">
        <ele>59</ele>
        <time>2023-11-04T18:59:41Z</time>
      </trkpt>
      <trkpt lat="47.54791" lon="-1.48133">
        <ele>59</ele>
        <time>2023-11-04T19:01:32Z</time>
      </trkpt>
      <trkpt lat="47.54779" lon="-1.48161">
        <ele>59</ele>
        <time>2023-11-04T19:02:01Z</time>
      </trkpt>
      <trkpt lat="47.54786" lon="-1.48092">
        <ele>58</ele>
        <time>2023-11-04T19:03:04Z</time>
      </trkpt>
      <trkpt lat="47.54782" lon="-1.48063">
        <ele>58</ele>
        <time>2023-11-04T19:03:31Z</time>
      </trkpt>
      <trkpt lat="47.54778" lon="-1.47996">
        <ele>57</ele>
        <time>2023-11-04T19:04:32Z</time>
      </trkpt>
      <trkpt lat="47.54777" lon="-1.47937">
        <ele>57</ele>
        <time>2023-11-04T19:05:25Z</time>
      </trkpt>
      <trkpt lat="47.54767" lon="-1.47777">
        <ele>57</ele>
        <time>2023-11-04T19:07:49Z</time>
      </trkpt>
      <trkpt lat="47.54766" lon="-1.47715">
        <ele>57</ele>
        <time>2023-11-04T19:08:45Z</time>
      </trkpt>
      <trkpt lat="47.54777" lon="-1.47509">
        <ele>56</ele>
        <time>2023-11-04T19:11:51Z</time>
      </trkpt>
      <trkpt lat="47.5479" lon="-1.47389">
        <ele>55</ele>
        <time>2023-11-04T19:13:41Z</time>
      </trkpt>
      <trkpt lat="47.54791" lon="-1.47359">
        <ele>56</ele>
        <time>2023-11-04T19:14:08Z</time>
      </trkpt>
      <trkpt lat="47.54801" lon="-1.47336">
        <ele>56</ele>
        <time>2023-11-04T19:14:33Z</time>
      </trkpt>
      <trkpt lat="47.5482" lon="-1.47332">
        <ele>56</ele>
        <time>2023-11-04T19:14:58Z</time>
      </trkpt>
      <trkpt lat="47.54838" lon="-1.4732">
        <ele>56</ele>
        <time>2023-11-04T19:15:25Z</time>
      </trkpt>
      <trkpt lat="47.54863" lon="-1.47309">
        <ele>57</ele>
        <time>2023-11-04T19:15:59Z</time>
      </trkpt>
      <trkpt lat="47.54875" lon="-1.47283">
        <ele>57</ele>
        <time>2023-11-04T19:16:28Z</time>
      </trkpt>
      <trkpt lat="47.54892" lon="-1.47272">
        <ele>58</ele>
        <time>2023-11-04T19:16:52Z</time>
      </trkpt>
      <trkpt lat="47.54926" lon="-1.47241">
        <ele>59</ele>
        <time>2023-11-04T19:17:46Z</time>
      </trkpt>
      <trkpt lat="47.54959" lon="-1.47205">
        <ele>60</ele>
        <time>2023-11-04T19:18:40Z</time>
      </trkpt>
      <trkpt lat="47.5501" lon="-1.47156">
        <ele>60</ele>
        <time>2023-11-04T19:20:02Z</time>
      </trkpt>
      <trkpt lat="47.55044" lon="-1.47129">
        <ele>60</ele>
        <time>2023-11-04T19:20:53Z</time>
      </trkpt>
      <trkpt lat="47.55062" lon="-1.47121">
        <ele>59</ele>
        <time>2023-11-04T19:21:18Z</time>
      </trkpt>
      <trkpt lat="47.55088" lon="-1.47124">
        <ele>60</ele>
        <time>2023-11-04T19:21:53Z</time>
      </trkpt>
      <trkpt lat="47.55126" lon="-1.47112">
        <ele>61</ele>
        <time>2023-11-04T19:22:45Z</time>
      </trkpt>
      <trkpt lat="47.55143" lon="-1.47098">
        <ele>61</ele>
        <time>2023-11-04T19:23:11Z</time>
      </trkpt>
      <trkpt lat="47.55165" lon="-1.47091">
        <ele>62</ele>
        <time>2023-11-04T19:23:41Z</time>
      </trkpt>
      <trkpt lat="47.55205" lon="-1.47083">
        <ele>64</ele>
        <time>2023-11-04T19:24:35Z</time>
      </trkpt>
      <trkpt lat="47.55244" lon="-1.47072">
        <ele>67</ele>
        <time>2023-11-04T19:25:28Z</time>
      </trkpt>
      <trkpt lat="47.55262" lon="-1.47064">
        <ele>67</ele>
        <time>2023-11-04T19:25:53Z</time>
      </trkpt>
      <trkpt lat="47.55301" lon="-1.47057">
        <ele>68</ele>
        <time>2023-11-04T19:26:45Z</time>
      </trkpt>
      <trkpt lat="47.55341" lon="-1.4706">
        <ele>69</ele>
        <time>2023-11-04T19:27:39Z</time>
      </trkpt>
      <trkpt lat="47.55378" lon="-1.47068">
        <ele>70</ele>
        <time>2023-11-04T19:28:28Z</time>
      </trkpt>
      <trkpt lat="47.55417" lon="-1.47084">
        <ele>71</ele>
        <time>2023-11-04T19:29:22Z</time>
      </trkpt>
      <trkpt lat="47.55456" lon="-1.47096">
        <ele>74</ele>
        <time>2023-11-04T19:30:16Z</time>
      </trkpt>
      <trkpt lat="47.55478" lon="-1.47098">
        <ele>76</ele>
        <time>2023-11-04T19:30:45Z</time>
      </trkpt>
      <trkpt lat="47.55498" lon="-1.47091">
        <ele>77</ele>
        <time>2023-11-04T19:31:12Z</time>
      </trkpt>
      <trkpt lat="47.55515" lon="-1.4708">
        <ele>78</ele>
        <time>2023-11-04T19:31:37Z</time>
      </trkpt>
      <trkpt lat="47.55529" lon="-1.47063">
        <ele>79</ele>
        <time>2023-11-04T19:32:01Z</time>
      </trkpt>
      <trkpt lat="47.55548" lon="-1.47049">
        <ele>80</ele>
        <time>2023-11-04T19:32:30Z</time>
      </trkpt>
      <trkpt lat="47.5558" lon="-1.47013">
        <ele>82</ele>
        <time>2023-11-04T19:33:23Z</time>
      </trkpt>
      <trkpt lat="47.55612" lon="-1.46986">
        <ele>81</ele>
        <time>2023-11-04T19:34:12Z</time>
      </trkpt>
      <trkpt lat="47.5568" lon="-1.46946">
        <ele>77</ele>
        <time>2023-11-04T19:35:50Z</time>
      </trkpt>
      <trkpt lat="47.55705" lon="-1.4695">
        <ele>75</ele>
        <time>2023-11-04T19:36:24Z</time>
      </trkpt>
      <trkpt lat="47.55727" lon="-1.46962">
        <ele>74</ele>
        <time>2023-11-04T19:36:55Z</time>
      </trkpt>
      <trkpt lat="47.55747" lon="-1.46969">
        <ele>73</ele>
        <time>2023-11-04T19:37:22Z</time>
      </trkpt>
      <trkpt lat="47.5577" lon="-1.46965">
        <ele>72</ele>
        <time>2023-11-04T19:37:53Z</time>
      </trkpt>
      <trkpt lat="47.5579" lon="-1.46971">
        <ele>71</ele>
        <time>2023-11-04T19:38:20Z</time>
      </trkpt>
      <trkpt lat="47.55818" lon="-1.46957">
        <ele>70</ele>
        <time>2023-11-04T19:39:00Z</time>
      </trkpt>
      <trkpt lat="47.55831" lon="-1.46982">
        <ele>67</ele>
        <time>2023-11-04T19:39:28Z</time>
      </trkpt>
      <trkpt lat="47.55872" lon="-1.46953">
        <ele>65</ele>
        <time>2023-11-04T19:40:29Z</time>
      </trkpt>
      <trkpt lat="47.5589" lon="-1.46935">
        <ele>64</ele>
        <time>2023-11-04T19:40:58Z</time>
      </trkpt>
      <trkpt lat="47.55909" lon="-1.46921">
        <ele>63</ele>
        <time>2023-11-04T19:41:26Z</time>
      </trkpt>
      <trkpt lat="47.55929" lon="-1.4691">
        <ele>61</ele>
        <time>2023-11-04T19:41:55Z</time>
      </trkpt>
      <trkpt lat="47.55977" lon="-1.46861">
        <ele>60</ele>
        <time>2023-11-04T19:43:12Z</time>
      </trkpt>
      <trkpt lat="47.55995" lon="-1.46846">
        <ele>60</ele>
        <time>2023-11-04T19:43:40Z</time>
      </trkpt>
      <trkpt lat="47.56009" lon="-1.46824">
        <ele>61</ele>
        <time>2023-11-04T19:44:07Z</time>
      </trkpt>
      <trkpt lat="47.56051" lon="-1.46806">
        <ele>60</ele>
        <time>2023-11-04T19:45:06Z</time>
      </trkpt>
      <trkpt lat="47.56067" lon="-1.46785">
        <ele>62</ele>
        <time>2023-11-04T19:45:34Z</time>
      </trkpt>
      <trkpt lat="47.56084" lon="-1.46776">
        <ele>62</ele>
        <time>2023-11-04T19:45:58Z</time>
      </trkpt>
      <trkpt lat="47.561" lon="-1.46761">
        <ele>62</ele>
        <time>2023-11-04T19:46:23Z</time>
      </trkpt>
      <trkpt lat="47.56117" lon="-1.46755">
        <ele>62</ele>
        <time>2023-11-04T19:46:47Z</time>
      </trkpt>
      <trkpt lat="47.56248" lon="-1.46663">
        <ele>54</ele>
        <time>2023-11-04T19:50:00Z</time>
      </trkpt>
      <trkpt lat="47.56264" lon="-1.4665">
        <ele>53</ele>
        <time>2023-11-04T19:50:25Z</time>
      </trkpt>
      <trkpt lat="47.56283" lon="-1.46626">
        <ele>53</ele>
        <time>2023-11-04T19:50:58Z</time>
      </trkpt>
      <trkpt lat="47.56301" lon="-1.46613">
        <ele>53</ele>
        <time>2023-11-04T19:51:25Z</time>
      </trkpt>
      <trkpt lat="47.56317" lon="-1.46597">
        <ele>52</ele>
        <time>2023-11-04T19:51:50Z</time>
      </trkpt>
      <trkpt lat="47.56343" lon="-1.46585">
        <ele>51</ele>
        <time>2023-11-04T19:52:27Z</time>
      </trkpt>
      <trkpt lat="47.56353" lon="-1.46562">
        <ele>52</ele>
        <time>2023-11-04T19:52:51Z</time>
      </trkpt>
      <trkpt lat="47.56382" lon="-1.46531">
        <ele>51</ele>
        <time>2023-11-04T19:53:39Z</time>
      </trkpt>
      <trkpt lat="47.56426" lon="-1.46472">
        <ele>50</ele>
        <time>2023-11-04T19:54:58Z</time>
      </trkpt>
      <trkpt lat="47.56445" lon="-1.46455">
        <ele>50</ele>
        <time>2023-11-04T19:55:28Z</time>
      </trkpt>
      <trkpt lat="47.56468" lon="-1.46454">
        <ele>49</ele>
        <time>2023-11-04T19:55:59Z</time>
      </trkpt>
      <trkpt lat="47.56511" lon="-1.46439">
        <ele>47</ele>
        <time>2023-11-04T19:56:58Z</time>
      </trkpt>
    </trkseg>
  </trk>
</gpx>